RKJK/KUV METAR and TAF weather

Enter ICAO airport designator
Station Type Date Time Source
RKJK METAR 2022/06/28 15:56 UTC NOAA

RKJK 281556Z 20012G22KT 7SM BKN029 BKN036 28/23 A2965 RMK SLPNO WND DATA/ALSTG ESTMD


Station Type Date Time Source
RKJK Decoded METAR 2022/06/28 15:56 UTC NOAA

Kunsan Ab, Korea, South (RKJK) 35-55N 126-37E 10M
Jun 28, 2022 - 11:56 AM EDT / 2022.06.28 1556 UTC
Wind: from the SSW (200 degrees) at 14 MPH (12 KT) gusting to 25 MPH (22 KT):0
Visibility: 7 mile(s):0
Sky conditions: mostly cloudy
Temperature: 82 F (28 C)
Dew Point: 73 F (23 C)
Relative Humidity: 74%
Pressure (altimeter): 29.65 in. Hg (1004 hPa)
ob: RKJK 281556Z 20012G22KT 7SM BKN029 BKN036 28/23 A2965 RMK SLPNO WND DATA/ALSTG ESTMD
cycle: 16

Station Type Date Time Source
RKJK TAF 2022/06/28 08:12 UTC NOAA

TAF TAF RKJK 280800Z 2808/2914 21015G25KT 9999 BKN035 BKN100 BKN200 QNH2960INS
BECMG 2810/2812 19015G25KT 9999 BKN020 OVC050 QNH2962INS
BECMG 2816/2818 20015G25KT 8000 -SHRA BKN015 OVC050 QNH2962INS
BECMG 2820/2821 21020G25KT 6000 -SHRA VCTS BKN009CB QNH2963INS
TEMPO 2900/2908 20025G35KT 3200 TSRA OVC006CB
BECMG 2910/2912 19012G18KT 6000 -SHRA OVC008 QNH2969INS TX31/2808Z TN24/2820Z

Example: see airport list